Unsere Flugzeuge

CESSNA 172 SP NXI

D-E
Garmin G1000 IFR
Bj. 
180 PS

 

 

 

 

 

 

 

 

 

 

 

 

 

 

Flugwetter Augsburg

[source: ADDS]
METAR
EDMA 042350Z AUTO VRB02KT 6000 // BKN130/// BKN210/// M03/M04 Q0989 =
TAF EDMA 041700Z 0418/0503 VRB03KT CAVOK BECMG 0500/0503 26008KT
TAF
TAF EDMA 041700Z 0418/0503 VRB03KT CAVOK BECMG 0500/0503 26008KT =
Cookies erleichtern die Bereitstellung unserer Dienste. Mit der Nutzung unserer Dienste erklären Sie sich damit einverstanden, dass wir Cookies verwenden.
Weitere Informationen Ok